Time;durP1;ratioP1;P1;durP2;ratioP2;P2;SDS_P1;SDS_P2;PMS_P1;PMS_P2;Temp;Humidity;BMP_temperature;BMP_pressure;BME280_temperature;BME280_humidity;BME280_pressure;Samples;Min_cycle;Max_cycle;Signal;HPM_P1;HPM_P2
2022/06/24 00:11:43;;;;;;;;;;;;;;;21.18;100.00;100745.72;2613612;54;19931;-57
2022/06/24 00:26:48;;;;;;;;;;;;;;;21.04;100.00;100711.19;2614152;36;19954;-53
2022/06/24 00:29:18;;;;;;;;;;;;;;;21.10;100.00;100715.00;2614360;36;19950;-52
2022/06/24 00:32:01;;;;;;;;;;;;;;;21.03;100.00;100705.94;2614905;36;19955;-52
2022/06/24 00:56:50;;;;;;;;;;;;;;;20.79;100.00;100563.25;2614617;36;19958;-57
2022/06/24 00:59:18;;;;;;;;;;;;;;;20.69;100.00;100560.94;2614596;36;20473;-54
2022/06/24 01:01:46;;;;;;;;;;;;;;;20.65;100.00;100555.00;2614915;31;20440;-58
2022/06/24 01:04:14;;;;;;;;;;;;;;;20.73;100.00;100547.66;2613812;36;19979;-56
2022/06/24 01:14:15;;;;;;;;;;;;;;;20.70;100.00;100526.22;2612711;36;20042;-61
2022/06/24 01:16:44;;;;;;;;;;;;;;;20.67;100.00;100522.03;2613981;36;19945;-56
2022/06/24 01:19:13;;;;;;;;;;;;;;;20.63;100.00;100524.28;2614082;36;20061;-58
2022/06/24 01:21:44;;;;;;;;;;;;;;;20.79;100.00;100516.75;2614148;36;20372;-56
2022/06/24 01:39:15;;;;;;;;;;;;;;;20.29;100.00;100801.38;2612902;36;19959;-53
2022/06/24 01:41:43;;;;;;;;;;;;;;;19.87;100.00;100816.88;2615250;36;19947;-60
2022/06/24 01:44:11;;;;;;;;;;;;;;;19.77;100.00;100819.91;2614299;36;19975;-54
2022/06/24 01:54:01;;;;;;;;;;;;;;;19.76;100.00;100774.53;2613633;54;19947;-56
2022/06/24 02:03:59;;;;;;;;;;;;;;;19.87;100.00;100746.69;2613710;39;20685;-55
2022/06/24 02:06:27;;;;;;;;;;;;;;;19.83;100.00;100755.47;2617593;36;20332;-52
2022/06/24 02:08:56;;;;;;;;;;;;;;;19.88;100.00;100742.91;2614007;31;19970;-57
2022/06/24 02:14:06;;;;;;;;;;;;;;;19.94;100.00;100711.22;2615295;36;20456;-55
2022/06/24 02:16:34;;;;;;;;;;;;;;;20.02;100.00;100710.22;2614186;36;19947;-57
2022/06/24 02:19:05;;;;;;;;;;;;;;;20.02;100.00;100699.28;2613404;36;19950;-57
2022/06/24 02:28:54;;;;;;;;;;;;;;;19.91;100.00;100682.41;2613192;54;21146;-56
2022/06/24 02:31:22;;;;;;;;;;;;;;;19.89;100.00;100678.19;2614565;36;19985;-57
2022/06/24 02:33:50;;;;;;;;;;;;;;;19.89;100.00;100687.25;2614165;36;19950;-57
2022/06/24 02:43:42;;;;;;;;;;;;;;;19.28;100.00;100666.03;2612009;54;19946;-55
2022/06/24 02:46:12;;;;;;;;;;;;;;;19.21;100.00;100670.59;2614639;36;19959;-57
2022/06/24 02:48:43;;;;;;;;;;;;;;;19.30;100.00;100682.19;2614497;36;19950;-59
2022/06/24 02:51:13;;;;;;;;;;;;;;;19.29;100.00;100692.28;2613845;36;19951;-57
2022/06/24 03:01:11;;;;;;;;;;;;;;;19.35;100.00;100682.47;2613210;36;19953;-55
2022/06/24 03:11:17;;;;;;;;;;;;;;;19.13;100.00;100690.69;2612591;54;19958;-53
2022/06/24 03:21:16;;;;;;;;;;;;;;;19.04;100.00;100698.16;2613068;36;19957;-55
2022/06/24 03:23:44;;;;;;;;;;;;;;;19.08;100.00;100682.25;2613887;31;19947;-52
2022/06/24 03:26:12;;;;;;;;;;;;;;;18.99;100.00;100673.38;2613581;36;19954;-54
2022/06/24 03:36:00;;;;;;;;;;;;;;;18.78;100.00;100657.81;2605499;54;19950;-55
2022/06/24 03:43:27;;;;;;;;;;;;;;;18.75;100.00;100652.75;2612546;54;19970;-56
2022/06/24 03:46:04;;;;;;;;;;;;;;;18.79;100.00;100645.88;2615398;36;19957;-58
2022/06/24 03:56:05;;;;;;;;;;;;;;;18.62;100.00;100639.00;2613320;54;19951;-54
2022/06/24 03:58:34;;;;;;;;;;;;;;;18.43;100.00;100619.50;2618064;31;19947;-56
2022/06/24 04:01:05;;;;;;;;;;;;;;;18.54;100.00;100610.81;2615354;31;19951;-54
2022/06/24 04:08:40;;;;;;;;;;;;;;;18.53;100.00;100611.84;2613165;54;19974;-55
2022/06/24 04:26:09;;;;;;;;;;;;;;;18.79;100.00;100615.03;2617676;31;19981;-57
2022/06/24 04:28:37;;;;;;;;;;;;;;;18.66;100.00;100605.69;2614437;36;20333;-54
2022/06/24 04:31:05;;;;;;;;;;;;;;;18.65;100.00;100595.81;2615477;36;20064;-57
2022/06/24 04:40:50;;;;;;;;;;;;;;;18.72;100.00;100585.81;2613570;36;19997;-56
2022/06/24 04:50:48;;;;;;;;;;;;;;;18.53;100.00;100597.38;2617466;36;19946;-57
2022/06/24 04:53:16;;;;;;;;;;;;;;;18.63;100.00;100591.63;2617873;36;19953;-59
2022/06/24 05:03:23;;;;;;;;;;;;;;;18.70;100.00;100581.63;2613797;36;19951;-57
2022/06/24 05:13:23;;;;;;;;;;;;;;;18.84;100.00;100597.03;2614800;36;19993;-59
2022/06/24 05:23:14;;;;;;;;;;;;;;;18.89;100.00;100624.59;2613196;54;19950;-59
2022/06/24 05:25:42;;;;;;;;;;;;;;;18.94;100.00;100620.44;2615316;36;19957;-57
2022/06/24 05:28:10;;;;;;;;;;;;;;;19.02;100.00;100617.56;2615802;31;19950;-59
2022/06/24 05:30:41;;;;;;;;;;;;;;;19.01;100.00;100616.72;2613849;36;20443;-59
2022/06/24 05:40:32;;;;;;;;;;;;;;;18.91;100.00;100599.84;2613075;36;19951;-58
2022/06/24 05:50:24;;;;;;;;;;;;;;;18.89;100.00;100602.78;2617003;36;19946;-55
2022/06/24 05:55:34;;;;;;;;;;;;;;;19.19;100.00;100608.03;2635375;36;19951;-57
2022/06/24 06:05:53;;;;;;;;;;;;;;;19.31;100.00;100593.84;2612319;54;19953;-56
2022/06/24 06:11:02;;;;;;;;;;;;;;;19.21;100.00;100588.72;2615226;36;19946;-56
2022/06/24 06:16:12;;;;;;;;;;;;;;;19.18;100.00;100600.88;2614390;36;19953;-55
2022/06/24 06:31:43;;;;;;;;;;;;;;;;;;;;;
2022/06/24 06:36:42;;;;;;;;;;;;;;;20.64;100.00;100585.28;2612791;36;19950;-56
2022/06/24 06:46:42;;;;;;;;;;;;;;;20.06;100.00;100607.69;2613408;36;19981;-61
2022/06/24 06:49:11;;;;;;;;;;;;;;;20.02;100.00;100617.31;2613041;36;19958;-57
2022/06/24 06:54:11;;;;;;;;;;;;;;;20.08;100.00;100614.63;2613036;54;19939;-57
2022/06/24 06:56:39;;;;;;;;;;;;;;;20.07;100.00;100625.75;2612542;36;19958;-53
2022/06/24 06:59:07;;;;;;;;;;;;;;;19.97;100.00;100614.38;2612484;36;19954;-57
2022/06/24 07:06:41;;;;;;;;;;;;;;;20.40;100.00;100614.06;2611285;36;20045;-53
2022/06/24 07:09:10;;;;;;;;;;;;;;;20.35;100.00;100627.53;2613776;31;19950;-57
2022/06/24 07:11:38;;;;;;;;;;;;;;;20.02;100.00;100630.97;2613911;31;19950;-55
2022/06/24 07:28:59;;;;;;;;;;;;;;;19.25;100.00;100648.16;2613393;54;19969;-56
2022/06/24 07:36:40;;;;;;;;;;;;;;;19.52;100.00;100636.59;2613199;54;19966;-56
2022/06/24 07:39:11;;;;;;;;;;;;;;;19.43;100.00;100641.34;2618722;36;20476;-58
2022/06/24 07:54:24;;;;;;;;;;;;;;;19.63;100.00;100651.56;2612484;36;19962;-59
2022/06/24 08:01:52;;;;;;;;;;;;;;;19.50;100.00;100649.59;2613033;54;19939;-54
2022/06/24 08:04:22;;;;;;;;;;;;;;;19.46;100.00;100645.56;2615607;36;19951;-54
2022/06/24 08:21:42;;;;;;;;;;;;;;;19.44;100.00;100645.78;2612872;47;20456;-53
2022/06/24 08:31:43;;;;;;;;;;;;;;;19.41;100.00;100644.28;2612750;54;19995;-58
2022/06/24 08:49:01;;;;;;;;;;;;;;;19.67;100.00;100640.03;2618534;36;19947;-57
2022/06/24 08:51:30;;;;;;;;;;;;;;;19.64;100.00;100631.41;2614892;36;20428;-58
2022/06/24 08:54:00;;;;;;;;;;;;;;;19.91;100.00;100638.72;2614791;36;20370;-58
2022/06/24 09:04:34;;;;;;;;;;;;;;;19.91;100.00;100638.72;2616367;36;19973;-58
2022/06/24 09:07:03;;;;;;;;;;;;;;;19.97;100.00;100637.06;2613358;36;19950;-58
2022/06/24 09:09:31;;;;;;;;;;;;;;;20.15;100.00;100633.75;2614981;36;19950;-56
2022/06/24 09:12:01;;;;;;;;;;;;;;;20.10;100.00;100633.56;2611897;36;20360;-56
2022/06/24 09:14:45;;;;;;;;;;;;;;;20.19;100.00;100635.03;2613823;36;20041;-56
2022/06/24 09:17:14;;;;;;;;;;;;;;;20.31;100.00;100633.38;2614660;36;20074;-59
2022/06/24 09:19:44;;;;;;;;;;;;;;;20.37;100.00;100637.19;2612336;36;19970;-58
2022/06/24 09:22:12;;;;;;;;;;;;;;;20.50;100.00;100636.38;2612617;36;19977;-59
2022/06/24 09:24:48;;;;;;;;;;;;;;;20.35;100.00;100639.31;2613184;36;19957;-61
2022/06/24 09:27:16;;;;;;;;;;;;;;;20.45;100.00;100637.00;2613849;36;19938;-56
2022/06/24 09:29:48;;;;;;;;;;;;;;;20.80;100.00;100636.03;2612757;36;19997;-58
2022/06/24 09:32:16;;;;;;;;;;;;;;;20.99;100.00;100635.22;2614684;36;20028;-59
2022/06/24 09:35:01;;;;;;;;;;;;;;;21.08;100.00;100627.63;2613924;36;19947;-58
2022/06/24 09:37:39;;;;;;;;;;;;;;;21.08;100.00;100622.16;2613503;36;20426;-57
2022/06/24 09:40:21;;;;;;;;;;;;;;;21.05;100.00;100624.47;2613410;31;19963;-57
2022/06/24 09:42:59;;;;;;;;;;;;;;;21.18;100.00;100624.47;2614859;36;19938;-57
2022/06/24 09:45:28;;;;;;;;;;;;;;;21.09;100.00;100625.75;2613954;36;19953;-58
2022/06/24 09:47:58;;;;;;;;;;;;;;;20.99;100.00;100618.81;2613808;36;19946;-58
2022/06/24 09:50:26;;;;;;;;;;;;;;;21.12;100.00;100622.56;2613406;36;19946;-58
2022/06/24 09:52:57;;;;;;;;;;;;;;;21.22;100.00;100617.50;2614660;36;20355;-58
2022/06/24 09:55:26;;;;;;;;;;;;;;;21.22;100.00;100619.41;2614340;36;20455;-57
2022/06/24 09:57:54;;;;;;;;;;;;;;;21.66;100.00;100620.63;2613938;36;20030;-59
2022/06/24 10:03:05;;;;;;;;;;;;;;;21.77;100.00;100619.09;2612411;36;19950;-58
2022/06/24 10:05:36;;;;;;;;;;;;;;;21.70;100.00;100625.44;2613817;36;19947;-58
2022/06/24 10:08:07;;;;;;;;;;;;;;;21.12;100.00;100617.09;2614619;31;20348;-60
2022/06/24 10:10:38;;;;;;;;;;;;;;;21.12;100.00;100619.84;2614686;36;19958;-60
2022/06/24 10:13:08;;;;;;;;;;;;;;;20.95;100.00;100612.06;2615322;36;19962;-58
2022/06/24 10:15:37;;;;;;;;;;;;;;;21.06;100.00;100628.91;2612051;36;19950;-60
2022/06/24 10:18:09;;;;;;;;;;;;;;;21.12;100.00;100633.53;2614155;36;19958;-60
2022/06/24 10:20:38;;;;;;;;;;;;;;;21.08;100.00;100626.78;2614211;36;20451;-58
2022/06/24 10:23:09;;;;;;;;;;;;;;;21.32;100.00;100631.59;2614502;36;19958;-58
2022/06/24 10:25:53;;;;;;;;;;;;;;;21.97;100.00;100628.09;2614311;36;19947;-60
2022/06/24 10:28:21;;;;;;;;;;;;;;;21.63;100.00;100629.25;2614574;36;20428;-60
2022/06/24 10:30:57;;;;;;;;;;;;;;;21.89;100.00;100622.84;2614076;36;19953;-59
2022/06/24 10:33:28;;;;;;;;;;;;;;;22.39;100.00;100636.75;2614393;36;20034;-59
2022/06/24 10:35:56;;;;;;;;;;;;;;;22.48;100.00;100628.25;2613410;36;19946;-58
2022/06/24 10:38:27;;;;;;;;;;;;;;;22.18;100.00;100626.91;2614565;36;20341;-59
2022/06/24 10:40:58;;;;;;;;;;;;;;;22.03;100.00;100627.19;2614446;36;20530;-58
2022/06/24 10:43:36;;;;;;;;;;;;;;;21.87;100.00;100630.44;2613796;36;19946;-58
2022/06/24 10:46:22;;;;;;;;;;;;;;;21.56;100.00;100623.78;2606916;36;19950;-62
2022/06/24 10:49:03;;;;;;;;;;;;;;;21.30;100.00;100628.25;2614028;36;19973;-58
2022/06/24 10:51:34;;;;;;;;;;;;;;;21.67;100.00;100631.34;2613722;36;19954;-58
2022/06/24 10:54:17;;;;;;;;;;;;;;;21.69;100.00;100623.75;2614602;31;19946;-57
2022/06/24 10:56:49;;;;;;;;;;;;;;;21.62;100.00;100631.16;2614062;31;19957;-58
2022/06/24 10:59:19;;;;;;;;;;;;;;;21.83;100.00;100629.19;2614834;36;19963;-59
2022/06/24 11:01:48;;;;;;;;;;;;;;;21.90;100.00;100623.69;2613988;36;20071;-60
2022/06/24 11:04:18;;;;;;;;;;;;;;;22.15;100.00;100613.66;2614267;36;19947;-59
2022/06/24 11:07:01;;;;;;;;;;;;;;;22.65;100.00;100610.22;2614408;36;20312;-58
2022/06/24 11:09:32;;;;;;;;;;;;;;;22.86;100.00;100608.16;2613890;36;19958;-59
2022/06/24 11:12:00;;;;;;;;;;;;;;;23.06;100.00;100592.34;2614252;36;19961;-58
2022/06/24 11:14:28;;;;;;;;;;;;;;;23.52;100.00;100597.63;2614031;31;20785;-59
2022/06/24 11:16:56;;;;;;;;;;;;;;;23.95;100.00;100600.31;2613974;36;19958;-60
2022/06/24 11:19:24;;;;;;;;;;;;;;;24.48;100.00;100595.97;2614702;36;19951;-58
2022/06/24 11:21:53;;;;;;;;;;;;;;;23.64;100.00;100589.47;2614082;36;20008;-58
2022/06/24 11:24:22;;;;;;;;;;;;;;;23.82;100.00;100602.34;2614621;36;19947;-57
2022/06/24 11:27:05;;;;;;;;;;;;;;;24.07;100.00;100608.63;2613614;36;19959;-58
2022/06/24 11:29:48;;;;;;;;;;;;;;;23.76;100.00;100599.47;2613968;36;20040;-60
2022/06/24 11:32:19;;;;;;;;;;;;;;;23.11;100.00;100596.38;2614890;36;19954;-59
2022/06/24 11:34:48;;;;;;;;;;;;;;;23.79;100.00;100598.13;2614957;36;19982;-60
2022/06/24 11:37:16;;;;;;;;;;;;;;;23.53;100.00;100602.06;2614351;36;19950;-58
2022/06/24 11:39:44;;;;;;;;;;;;;;;24.36;100.00;100586.84;2614534;36;19954;-59
2022/06/24 11:42:12;;;;;;;;;;;;;;;24.21;100.00;100583.69;2614595;36;19950;-58
2022/06/24 11:44:41;;;;;;;;;;;;;;;23.87;100.00;100588.78;2614167;36;19974;-57
2022/06/24 11:47:09;;;;;;;;;;;;;;;23.67;100.00;100581.59;2614068;36;19966;-58
2022/06/24 11:49:42;;;;;;;;;;;;;;;24.19;100.00;100583.06;2614477;36;19954;-57
2022/06/24 11:52:10;;;;;;;;;;;;;;;24.86;100.00;100585.66;2613714;36;19950;-58
2022/06/24 11:54:38;;;;;;;;;;;;;;;25.12;100.00;100589.84;2614487;36;20396;-58
2022/06/24 11:57:09;;;;;;;;;;;;;;;25.08;100.00;100588.66;2607603;36;20037;-59
2022/06/24 11:59:38;;;;;;;;;;;;;;;25.10;100.00;100586.50;2614311;36;19950;-58
2022/06/24 12:02:06;;;;;;;;;;;;;;;24.73;100.00;100603.22;2614640;36;19981;-58
2022/06/24 12:04:35;;;;;;;;;;;;;;;23.97;100.00;100605.59;2612943;36;20494;-58
2022/06/24 12:07:08;;;;;;;;;;;;;;;24.71;100.00;100594.38;2614720;36;19946;-61
2022/06/24 12:09:36;;;;;;;;;;;;;;;24.95;100.00;100592.47;2615298;36;20409;-58
2022/06/24 12:12:10;;;;;;;;;;;;;;;24.56;100.00;100588.44;2614973;36;19962;-58
2022/06/24 12:14:38;;;;;;;;;;;;;;;24.04;100.00;100595.34;2614351;36;20319;-59
2022/06/24 12:17:08;;;;;;;;;;;;;;;23.79;100.00;100593.50;2615654;36;20440;-58
2022/06/24 12:19:39;;;;;;;;;;;;;;;23.58;100.00;100602.19;2614949;36;19965;-57
2022/06/24 12:22:11;;;;;;;;;;;;;;;23.65;100.00;100602.16;2614266;36;20015;-57
2022/06/24 12:24:40;;;;;;;;;;;;;;;23.26;100.00;100608.66;2614937;31;19962;-57
2022/06/24 12:27:09;;;;;;;;;;;;;;;23.39;100.00;100615.91;2615547;36;20421;-58
2022/06/24 12:29:38;;;;;;;;;;;;;;;23.15;100.00;100603.09;2615284;36;19947;-58
2022/06/24 12:32:07;;;;;;;;;;;;;;;23.03;100.00;100605.69;2615613;31;19965;-59
2022/06/24 12:34:37;;;;;;;;;;;;;;;23.15;100.00;100603.91;2613527;36;19947;-58
2022/06/24 12:37:06;;;;;;;;;;;;;;;23.21;100.00;100607.66;2614367;36;20455;-58
2022/06/24 12:39:38;;;;;;;;;;;;;;;23.09;100.00;100600.13;2612951;36;19954;-58
2022/06/24 12:42:06;;;;;;;;;;;;;;;22.60;100.00;100601.81;2615152;36;19954;-59
2022/06/24 12:44:42;;;;;;;;;;;;;;;22.10;100.00;100601.66;2615417;36;20344;-58
2022/06/24 12:52:34;;;;;;;;;;;;;;;21.38;100.00;100596.19;2613847;31;20390;-55
2022/06/24 12:55:06;;;;;;;;;;;;;;;21.16;100.00;100596.47;2612282;36;20428;-56
2022/06/24 12:57:34;;;;;;;;;;;;;;;21.23;100.00;100597.31;2612862;36;19957;-57
2022/06/24 13:00:04;;;;;;;;;;;;;;;21.42;100.00;100592.84;2613926;36;20361;-58
2022/06/24 13:02:32;;;;;;;;;;;;;;;21.45;100.00;100577.88;2605054;31;19954;-57
2022/06/24 13:05:00;;;;;;;;;;;;;;;21.64;100.00;100584.38;2614620;36;19951;-57
2022/06/24 13:07:28;;;;;;;;;;;;;;;22.15;100.00;100588.97;2613850;36;20403;-58
2022/06/24 13:09:56;;;;;;;;;;;;;;;22.49;100.00;100577.84;2614921;36;19981;-55
2022/06/24 13:12:27;;;;;;;;;;;;;;;22.58;100.00;100587.47;2610727;36;19955;-57
2022/06/24 13:14:55;;;;;;;;;;;;;;;22.86;100.00;100581.53;2612644;36;19947;-54
2022/06/24 13:17:23;;;;;;;;;;;;;;;23.22;100.00;100590.13;2614715;36;20030;-52
2022/06/24 13:19:51;;;;;;;;;;;;;;;22.63;100.00;100590.41;2615347;36;19997;-56
2022/06/24 13:22:19;;;;;;;;;;;;;;;22.85;100.00;100598.22;2614740;36;19954;-55
2022/06/24 13:24:47;;;;;;;;;;;;;;;22.93;100.00;100595.22;2614986;36;19947;-56
2022/06/24 13:27:15;;;;;;;;;;;;;;;23.28;100.00;100602.94;2614963;36;19981;-55
2022/06/24 13:29:46;;;;;;;;;;;;;;;23.94;100.00;100597.81;2614914;36;19958;-56
2022/06/24 13:32:14;;;;;;;;;;;;;;;23.96;100.00;100590.16;2615294;31;20451;-55
2022/06/24 13:34:42;;;;;;;;;;;;;;;23.60;100.00;100589.06;2614450;36;19946;-58
2022/06/24 13:37:10;;;;;;;;;;;;;;;23.67;100.00;100594.50;2613585;36;19951;-56
2022/06/24 13:39:38;;;;;;;;;;;;;;;23.74;100.00;100587.84;2613118;36;20443;-56
2022/06/24 13:42:07;;;;;;;;;;;;;;;24.29;100.00;100591.59;2611620;36;19946;-55
2022/06/24 13:44:36;;;;;;;;;;;;;;;23.88;100.00;100595.94;2613838;36;19947;-57
2022/06/24 13:47:07;;;;;;;;;;;;;;;24.23;100.00;100598.84;2613407;36;19951;-57
2022/06/24 13:49:35;;;;;;;;;;;;;;;23.47;100.00;100592.81;2612801;36;19954;-55
2022/06/24 13:52:03;;;;;;;;;;;;;;;24.46;100.00;100592.59;2614199;36;19950;-56
2022/06/24 13:54:31;;;;;;;;;;;;;;;24.77;100.00;100596.16;2615183;36;19958;-53
2022/06/24 13:57:00;;;;;;;;;;;;;;;25.29;100.00;100594.63;2615553;31;19946;-54
2022/06/24 13:59:28;;;;;;;;;;;;;;;25.16;100.00;100596.56;2615462;36;19950;-56
2022/06/24 14:01:56;;;;;;;;;;;;;;;24.81;100.00;100600.13;2605692;36;19956;-57
2022/06/24 14:04:27;;;;;;;;;;;;;;;24.71;100.00;100599.88;2614331;36;19962;-56
2022/06/24 14:06:55;;;;;;;;;;;;;;;24.01;100.00;100598.53;2614325;36;20281;-55
2022/06/24 14:09:23;;;;;;;;;;;;;;;23.79;100.00;100598.13;2612729;36;20014;-58
2022/06/24 14:11:51;;;;;;;;;;;;;;;24.07;100.00;100603.13;2606254;36;19987;-54
2022/06/24 14:14:19;;;;;;;;;;;;;;;24.47;100.00;100599.78;2614247;36;19943;-60
2022/06/24 14:16:47;;;;;;;;;;;;;;;24.91;100.00;100599.56;2613254;36;19967;-58
2022/06/24 14:26:47;;;;;;;;;;;;;;;25.81;100.00;100567.13;2612516;54;19939;-59
2022/06/24 14:29:15;;;;;;;;;;;;;;;25.48;100.00;100579.66;2614030;36;19974;-59
2022/06/24 14:31:43;;;;;;;;;;;;;;;25.56;100.00;100577.63;2612985;36;19950;-59
2022/06/24 14:34:11;;;;;;;;;;;;;;;25.30;100.00;100580.66;2614099;36;20372;-60
2022/06/24 14:36:39;;;;;;;;;;;;;;;24.79;100.00;100584.91;2612601;36;19950;-62
2022/06/24 14:41:50;;;;;;;;;;;;;;;25.32;100.00;100580.41;2613465;36;20534;-59
2022/06/24 14:44:18;;;;;;;;;;;;;;;25.50;100.00;100585.78;2613025;36;19976;-59
2022/06/24 14:46:46;;;;;;;;;;;;;;;25.24;100.00;100575.25;2613525;36;19946;-59
2022/06/24 14:49:14;;;;;;;;;;;;;;;25.27;100.00;100572.00;2612430;36;19985;-58
2022/06/24 14:51:43;;;;;;;;;;;;;;;25.84;100.00;100580.44;2612485;36;19958;-58
2022/06/24 14:54:11;;;;;;;;;;;;;;;25.38;100.00;100573.09;2613493;36;19954;-58
2022/06/24 14:56:39;;;;;;;;;;;;;;;26.01;100.00;100568.66;2613297;36;19970;-60
2022/06/24 15:01:38;;;;;;;;;;;;;;;25.44;100.00;100574.88;2613528;31;20432;-59
2022/06/24 15:09:13;;;;;;;;;;;;;;;26.69;100.00;100563.25;2613771;36;20347;-60
2022/06/24 15:11:42;;;;;;;;;;;;;;;27.07;100.00;100558.88;2613977;36;20077;-59
2022/06/24 15:16:53;;;;;;;;;;;;;;;26.53;100.00;100565.75;2613532;36;20488;-60
2022/06/24 15:19:21;;;;;;;;;;;;;;;25.60;100.00;100568.63;2614181;54;19950;-60
2022/06/24 15:21:50;;;;;;;;;;;;;;;25.12;100.00;100572.50;2613557;36;20359;-61
2022/06/24 15:24:18;;;;;;;;;;;;;;;25.33;100.00;100565.56;2617992;36;19954;-59
2022/06/24 15:26:46;;;;;;;;;;;;;;;24.56;100.00;100563.66;2617887;36;19970;-60
2022/06/24 15:36:56;;;;;;;;;;;;;;;25.84;100.00;100552.84;2611528;36;19950;-59
2022/06/24 15:39:28;;;;;;;;;;;;;;;25.11;100.00;100551.53;2613835;54;19950;-61
2022/06/24 15:44:38;;;;;;;;;;;;;;;24.60;100.00;100554.75;2615912;36;19950;-61
2022/06/24 15:49:38;;;;;;;;;;;;;;;24.11;100.00;100546.56;2613249;36;19951;-59
2022/06/24 15:52:09;;;;;;;;;;;;;;;23.62;100.00;100564.97;2613780;36;19958;-60
2022/06/24 15:54:37;;;;;;;;;;;;;;;23.51;100.00;100560.22;2614447;36;19958;-62
2022/06/24 15:57:07;;;;;;;;;;;;;;;23.40;100.00;100556.34;2615071;31;20247;-59
2022/06/24 15:59:35;;;;;;;;;;;;;;;23.60;100.00;100558.84;2614515;54;19946;-60
2022/06/24 16:02:04;;;;;;;;;;;;;;;23.86;100.00;100559.63;2614363;36;20315;-60
2022/06/24 16:07:04;;;;;;;;;;;;;;;23.43;100.00;100562.22;2613793;36;19970;-57
2022/06/24 16:09:36;;;;;;;;;;;;;;;23.48;100.00;100552.44;2613814;36;19962;-59
2022/06/24 16:14:45;;;;;;;;;;;;;;;23.26;100.00;100555.66;2614804;36;20325;-59
2022/06/24 16:17:20;;;;;;;;;;;;;;;22.95;100.00;100554.66;2614727;36;19946;-60
2022/06/24 16:19:48;;;;;;;;;;;;;;;23.07;100.00;100562.97;2614414;36;19951;-60
2022/06/24 16:30:21;;;;;;;;;;;;;;;22.32;100.00;100589.34;2618099;36;19946;-58
2022/06/24 16:35:20;;;;;;;;;;;;;;;22.17;100.00;100586.03;2614939;54;20453;-65
2022/06/24 16:37:49;;;;;;;;;;;;;;;22.15;100.00;100593.63;2615105;36;19951;-59
2022/06/24 16:40:17;;;;;;;;;;;;;;;22.16;100.00;100596.16;2615034;31;19982;-61
2022/06/24 16:45:30;;;;;;;;;;;;;;;22.06;100.00;100606.75;2619730;36;19973;-59
2022/06/24 16:47:59;;;;;;;;;;;;;;;21.88;100.00;100621.16;2613827;54;19954;-58
2022/06/24 16:50:27;;;;;;;;;;;;;;;21.67;100.00;100625.03;2614714;36;19954;-59
2022/06/24 17:13:58;;;;;;;;;;;;;;;22.09;100.00;100603.56;2615760;54;20010;-59
2022/06/24 17:21:25;;;;;;;;;;;;;;;21.49;100.00;100607.34;2613646;36;19950;-57
2022/06/24 17:28:45;;;;;;;;;;;;;;;21.90;100.00;100607.25;2613521;54;19931;-62
2022/06/24 17:33:43;;;;;;;;;;;;;;;22.12;100.00;100621.47;2613570;54;19993;-61
2022/06/24 17:46:15;;;;;;;;;;;;;;;21.29;100.00;100621.09;2614276;36;20010;-61
2022/06/24 17:48:47;;;;;;;;;;;;;;;21.62;100.00;100627.56;2615012;36;20436;-59
2022/06/24 17:51:16;;;;;;;;;;;;;;;21.53;100.00;100636.00;2613980;47;20578;-59
2022/06/24 17:53:47;;;;;;;;;;;;;;;21.53;100.00;100627.78;2615845;39;20326;-60
2022/06/24 17:56:17;;;;;;;;;;;;;;;21.72;100.00;100632.63;2624532;36;19946;-61
2022/06/24 17:58:45;;;;;;;;;;;;;;;21.69;100.00;100633.88;2614222;36;19969;-58
2022/06/24 18:01:13;;;;;;;;;;;;;;;21.60;100.00;100640.63;2614487;36;20412;-58
2022/06/24 18:03:41;;;;;;;;;;;;;;;21.34;100.00;100642.34;2614387;36;20488;-62
2022/06/24 18:06:12;;;;;;;;;;;;;;;21.09;100.00;100650.38;2614036;36;19946;-59
2022/06/24 18:08:40;;;;;;;;;;;;;;;21.16;100.00;100638.34;2614405;47;19950;-59
2022/06/24 18:11:08;;;;;;;;;;;;;;;21.63;100.00;100635.56;2615288;36;19958;-60
2022/06/24 18:13:36;;;;;;;;;;;;;;;21.75;100.00;100643.13;2615376;36;19954;-59
2022/06/24 18:16:04;;;;;;;;;;;;;;;22.00;100.00;100644.09;2615966;36;20339;-58
2022/06/24 18:18:32;;;;;;;;;;;;;;;22.11;100.00;100639.81;2615046;36;19977;-60
2022/06/24 18:21:00;;;;;;;;;;;;;;;22.13;100.00;100645.06;2615644;36;20367;-57
2022/06/24 18:23:31;;;;;;;;;;;;;;;21.73;100.00;100645.22;2614388;36;19950;-62
2022/06/24 18:26:01;;;;;;;;;;;;;;;21.63;100.00;100649.28;2615475;36;19946;-58
2022/06/24 18:31:09;;;;;;;;;;;;;;;21.62;100.00;100655.78;2615453;36;19953;-58
2022/06/24 18:33:37;;;;;;;;;;;;;;;21.31;100.00;100654.53;2614935;36;20432;-59
2022/06/24 18:36:06;;;;;;;;;;;;;;;21.59;100.00;100661.69;2615697;31;19950;-61
2022/06/24 18:38:36;;;;;;;;;;;;;;;21.90;100.00;100657.41;2614834;36;20363;-60
2022/06/24 18:41:06;;;;;;;;;;;;;;;21.67;100.00;100657.88;2613563;36;19946;-58
2022/06/24 18:43:34;;;;;;;;;;;;;;;21.87;100.00;100652.34;2612217;36;19969;-58
2022/06/24 18:46:03;;;;;;;;;;;;;;;21.48;100.00;100651.34;2615326;36;20342;-58
2022/06/24 18:48:35;;;;;;;;;;;;;;;21.14;100.00;100658.78;2613400;36;19957;-57
2022/06/24 18:51:04;;;;;;;;;;;;;;;20.75;100.00;100655.81;2614060;47;19954;-58
2022/06/24 18:53:32;;;;;;;;;;;;;;;20.64;100.00;100661.84;2613513;36;19946;-62
2022/06/24 19:01:18;;;;;;;;;;;;;;;20.39;100.00;100664.31;2612264;36;20172;-59
2022/06/24 19:03:47;;;;;;;;;;;;;;;20.44;100.00;100675.50;2614325;36;19950;-57
2022/06/24 19:06:15;;;;;;;;;;;;;;;20.59;100.00;100665.22;2613543;36;19954;-61
2022/06/24 19:08:43;;;;;;;;;;;;;;;20.79;100.00;100664.47;2614079;36;19954;-59
2022/06/24 19:11:11;;;;;;;;;;;;;;;20.93;100.00;100666.13;2613884;36;19951;-60
2022/06/24 19:13:39;;;;;;;;;;;;;;;20.97;100.00;100669.31;2612749;36;19950;-58
2022/06/24 19:16:07;;;;;;;;;;;;;;;20.95;100.00;100682.34;2613836;36;19946;-59
2022/06/24 19:21:18;;;;;;;;;;;;;;;20.69;100.00;100683.16;2615139;36;19938;-62
2022/06/24 19:23:47;;;;;;;;;;;;;;;20.55;100.00;100687.72;2614013;54;20689;-62
2022/06/24 19:26:15;;;;;;;;;;;;;;;20.47;100.00;100691.47;2614327;36;20347;-59
2022/06/24 19:28:43;;;;;;;;;;;;;;;20.53;100.00;100696.13;2613878;36;19951;-59
2022/06/24 19:31:11;;;;;;;;;;;;;;;20.39;100.00;100699.84;2614370;31;19953;-62
2022/06/24 19:33:42;;;;;;;;;;;;;;;20.27;100.00;100705.94;2614335;36;19973;-63
2022/06/24 19:36:10;;;;;;;;;;;;;;;20.21;100.00;100700.41;2614341;36;20041;-61
2022/06/24 19:38:38;;;;;;;;;;;;;;;20.23;100.00;100704.66;2613660;36;19958;-60
2022/06/24 19:41:06;;;;;;;;;;;;;;;20.33;100.00;100711.59;2614108;54;19946;-58
2022/06/24 19:43:35;;;;;;;;;;;;;;;20.31;100.00;100718.13;2618522;36;20375;-57
2022/06/24 19:48:31;;;;;;;;;;;;;;;19.94;100.00;100725.72;2617784;36;20490;-58
2022/06/24 19:51:06;;;;;;;;;;;;;;;20.11;100.00;100726.25;2613723;47;19946;-59
2022/06/24 19:53:39;;;;;;;;;;;;;;;19.83;100.00;100733.63;2612432;36;19969;-61
2022/06/24 19:56:07;;;;;;;;;;;;;;;19.75;100.00;100738.16;2613866;31;19954;-61
2022/06/24 20:06:08;;;;;;;;;;;;;;;19.57;100.00;100746.88;2613927;36;20463;-59
2022/06/24 20:08:39;;;;;;;;;;;;;;;19.44;100.00;100754.97;2618315;36;20463;-61
2022/06/24 20:12:00;;;;;;;;;;;;;;;19.27;100.00;100765.28;2614378;36;19951;-61
2022/06/24 20:21:40;;;;;;;;;;;;;;;19.18;100.00;100786.41;2612567;54;19951;-59
2022/06/24 20:24:16;;;;;;;;;;;;;;;19.02;100.00;100786.66;2619050;36;19946;-60
2022/06/24 20:26:45;;;;;;;;;;;;;;;19.00;100.00;100788.75;2614624;36;19989;-64
2022/06/24 20:29:13;;;;;;;;;;;;;;;19.05;100.00;100791.72;2615133;36;19942;-58
2022/06/24 20:31:42;;;;;;;;;;;;;;;19.04;100.00;100787.34;2614519;36;19953;-59
2022/06/24 20:34:10;;;;;;;;;;;;;;;19.01;100.00;100782.25;2613805;36;19946;-58
2022/06/24 20:36:39;;;;;;;;;;;;;;;19.00;100.00;100781.41;2613215;36;19953;-59